createdAt,value
2023-01-09T00:01:53.504Z,98333.59
2023-01-09T00:04:43.040Z,98341.84
2023-01-09T00:07:32.385Z,98348.19
2023-01-09T00:10:21.920Z,98350.59
2023-01-09T00:13:13.396Z,98344.84
2023-01-09T00:16:02.652Z,98364.22
2023-01-09T00:18:53.750Z,98355.00
2023-01-09T00:21:43.096Z,98378.53
2023-01-09T00:24:32.458Z,98388.81
2023-01-09T00:27:22.049Z,98392.66
2023-01-09T00:30:13.215Z,98406.84
2023-01-09T00:33:02.551Z,98392.13
2023-01-09T00:35:53.947Z,98413.41
2023-01-09T00:38:43.204Z,98387.69
2023-01-09T00:41:36.716Z,98391.03
2023-01-09T00:44:31.450Z,98403.06
2023-01-09T00:47:26.573Z,98401.41
2023-01-09T00:50:20.988Z,98410.44
2023-01-09T00:53:18.322Z,98417.56
2023-01-09T00:56:14.969Z,98407.72
2023-01-09T00:59:04.823Z,98426.75
2023-01-09T01:01:54.154Z,98436.16
2023-01-09T01:05:01.147Z,98425.56
2023-01-09T01:07:50.864Z,98423.50
2023-01-09T01:10:42.199Z,98427.38
2023-01-09T01:13:31.448Z,98439.16
2023-01-09T01:16:21.098Z,98435.13
2023-01-09T01:19:10.454Z,98445.81
2023-01-09T01:21:59.702Z,98440.00
2023-01-09T01:24:49.065Z,98451.94
2023-01-09T01:27:40.136Z,98447.03
2023-01-09T01:30:31.444Z,98456.97
2023-01-09T01:33:20.725Z,98453.84
2023-01-09T01:36:11.204Z,98469.00
2023-01-09T01:39:00.423Z,98464.50
2023-01-09T01:41:49.615Z,98468.31
2023-01-09T01:45:08.468Z,98486.53
2023-01-09T01:48:03.152Z,98475.13
2023-01-09T01:50:57.663Z,98483.88
2023-01-09T01:53:50.644Z,98488.63
2023-01-09T01:56:45.804Z,98488.75
2023-01-09T01:59:39.764Z,98495.25
2023-01-09T02:02:33.653Z,98514.16
2023-01-09T02:05:26.322Z,98530.91
2023-01-09T02:08:15.883Z,98513.69
2023-01-09T02:11:06.586Z,98539.19
2023-01-09T02:13:55.871Z,98546.78
2023-01-09T02:16:56.261Z,98568.09
2023-01-09T02:20:43.515Z,98566.75
2023-01-09T02:24:26.449Z,98580.66
2023-01-09T02:27:42.023Z,98587.00
2023-01-09T02:30:44.901Z,98593.34
2023-01-09T02:33:54.762Z,98587.09
2023-01-09T02:36:55.902Z,98612.50
2023-01-09T02:39:53.854Z,98632.44
2023-01-09T02:42:45.407Z,98638.31
2023-01-09T02:45:36.039Z,98642.50
2023-01-09T02:48:25.480Z,98647.84
2023-01-09T02:51:23.963Z,98662.94
2023-01-09T02:54:29.647Z,98665.16
2023-01-09T02:57:44.171Z,98693.50
2023-01-09T03:00:44.684Z,98689.09
2023-01-09T03:03:41.566Z,98690.34
2023-01-09T03:06:39.605Z,98658.50
2023-01-09T03:09:33.036Z,98729.88
2023-01-09T03:12:26.016Z,98731.00
2023-01-09T03:15:19.482Z,98749.72
2023-01-09T03:18:12.993Z,98758.69
2023-01-09T03:21:03.449Z,98771.47
2023-01-09T03:23:57.383Z,98786.84
2023-01-09T03:26:46.574Z,98796.94
2023-01-09T03:29:35.900Z,98807.91
2023-01-09T03:32:27.830Z,98812.47
2023-01-09T03:35:18.617Z,98832.94
2023-01-09T03:38:08.123Z,98823.53
2023-01-09T03:40:57.373Z,98837.22
2023-01-09T03:43:47.958Z,98860.91
2023-01-09T03:46:37.139Z,98864.56
2023-01-09T03:49:26.466Z,98879.81
2023-01-09T03:52:17.131Z,98887.63
2023-01-09T03:55:07.452Z,98893.59
2023-01-09T03:57:56.655Z,98902.56
2023-01-09T04:00:48.891Z,98897.09
2023-01-09T04:03:38.277Z,98907.09
2023-01-09T04:06:27.549Z,98916.25
2023-01-09T04:09:18.157Z,98919.09
2023-01-09T04:12:08.271Z,98930.78
2023-01-09T04:14:57.410Z,98933.84
2023-01-09T04:17:46.632Z,98944.81
2023-01-09T04:20:36.076Z,98952.34
2023-01-09T04:23:25.288Z,98925.59
2023-01-09T04:26:16.059Z,98957.38
2023-01-09T04:29:05.432Z,98951.81
2023-01-09T04:31:54.775Z,98961.56
2023-01-09T04:34:44.147Z,98966.81
2023-01-09T04:37:33.488Z,98968.47
2023-01-09T04:40:22.844Z,98973.94
2023-01-09T04:43:13.517Z,98987.88
2023-01-09T04:46:04.018Z,99000.66
2023-01-09T04:48:53.219Z,99008.03
2023-01-09T04:51:42.588Z,98995.38
2023-01-09T04:54:32.022Z,98999.75
2023-01-09T04:57:21.859Z,99016.25
2023-01-09T05:00:13.663Z,99028.31
2023-01-09T05:03:02.962Z,99034.88
2023-01-09T05:05:52.268Z,99047.22
2023-01-09T05:08:41.615Z,99041.81
2023-01-09T05:11:30.870Z,99041.69
2023-01-09T05:14:20.287Z,99055.69
2023-01-09T05:17:10.972Z,99057.63
2023-01-09T05:20:01.183Z,99069.78
2023-01-09T05:22:50.582Z,99061.63
2023-01-09T05:25:39.778Z,99070.63
2023-01-09T05:28:28.932Z,99048.75
2023-01-09T05:31:18.212Z,99073.53
2023-01-09T05:34:08.992Z,99089.22
2023-01-09T05:36:58.269Z,99093.50
2023-01-09T05:39:47.448Z,99098.31
2023-01-09T05:42:36.822Z,99108.06
2023-01-09T05:45:27.350Z,99106.47
2023-01-09T05:48:16.572Z,99117.03
2023-01-09T05:51:07.505Z,99118.13
2023-01-09T05:53:56.693Z,99115.78
2023-01-09T05:56:46.152Z,99121.34
2023-01-09T05:59:35.574Z,99126.78
2023-01-09T06:02:24.978Z,99132.25
2023-01-09T06:05:14.291Z,99136.69
2023-01-09T06:08:04.964Z,99139.41
2023-01-09T06:10:54.250Z,99135.13
2023-01-09T06:13:43.633Z,99150.75
2023-01-09T06:16:33.249Z,99147.59
2023-01-09T06:19:22.562Z,99170.88
2023-01-09T06:22:11.786Z,99171.84
2023-01-09T06:25:02.573Z,99182.88
2023-01-09T06:27:52.310Z,99184.47
2023-01-09T06:30:41.665Z,99202.50
2023-01-09T06:33:30.878Z,99199.94
2023-01-09T06:36:22.309Z,99209.69
2023-01-09T06:39:14.193Z,99204.13
2023-01-09T06:42:05.992Z,99220.88
2023-01-09T06:44:55.289Z,99226.16
2023-01-09T06:47:44.621Z,99225.50
2023-01-09T06:50:34.150Z,99239.88
2023-01-09T06:53:23.498Z,99238.59
2023-01-09T06:56:12.769Z,99249.75
2023-01-09T06:59:03.347Z,99239.53
2023-01-09T07:01:53.179Z,99253.78
2023-01-09T07:04:42.449Z,99266.38
2023-01-09T07:07:31.655Z,99264.31
2023-01-09T07:10:21.105Z,99275.16
2023-01-09T07:13:10.723Z,99286.00
2023-01-09T07:16:03.400Z,99301.97
2023-01-09T07:18:52.661Z,99301.81
2023-01-09T07:21:41.895Z,99309.00
2023-01-09T07:24:31.327Z,99312.66
2023-01-09T07:27:21.551Z,99317.78
2023-01-09T07:30:12.981Z,99330.38
2023-01-09T07:33:04.172Z,99330.53
2023-01-09T07:35:53.534Z,99335.66
2023-01-09T07:38:42.764Z,99351.47
2023-01-09T07:41:32.000Z,99352.22
2023-01-09T07:44:22.681Z,99359.88
2023-01-09T07:47:12.160Z,99370.44
2023-01-09T07:50:02.928Z,99382.25
2023-01-09T07:52:52.261Z,99374.44
2023-01-09T07:55:43.755Z,99387.66
2023-01-09T07:58:33.001Z,99395.16
2023-01-09T08:01:22.492Z,99393.09
2023-01-09T08:04:12.110Z,99409.22
2023-01-09T08:07:03.771Z,99420.38
2023-01-09T08:09:52.992Z,99424.69
2023-01-09T08:12:45.706Z,99422.50
2023-01-09T08:15:35.029Z,99421.84
2023-01-09T08:18:24.276Z,99448.13
2023-01-09T08:21:14.433Z,99438.34
2023-01-09T08:24:05.416Z,99455.69
2023-01-09T08:26:54.568Z,99436.56
2023-01-09T08:29:43.784Z,99465.00
2023-01-09T08:32:33.006Z,99471.03
2023-01-09T08:35:22.540Z,99482.69
2023-01-09T08:38:12.256Z,99484.16
2023-01-09T08:41:23.681Z,99490.75
2023-01-09T08:44:30.088Z,99505.47
2023-01-09T08:47:23.574Z,99513.25
2023-01-09T08:50:13.360Z,99506.16
2023-01-09T08:53:02.631Z,99524.34
2023-01-09T08:55:51.949Z,99505.91
2023-01-09T08:58:42.554Z,99542.47
2023-01-09T09:01:31.932Z,99531.72
2023-01-09T09:04:21.348Z,99526.28
2023-01-09T09:07:10.749Z,99545.19
2023-01-09T09:09:59.983Z,99543.38
2023-01-09T09:12:51.863Z,99550.88
2023-01-09T09:15:42.565Z,99548.78
2023-01-09T09:18:31.791Z,99546.81
2023-01-09T09:21:21.608Z,99555.03
2023-01-09T09:24:11.020Z,99566.03
2023-01-09T09:27:00.279Z,99566.84
2023-01-09T09:29:49.584Z,99585.19
2023-01-09T09:32:40.589Z,99570.88
2023-01-09T09:35:31.470Z,99568.38
2023-01-09T09:38:20.815Z,99598.72
2023-01-09T09:41:46.847Z,99600.50
2023-01-09T09:44:59.489Z,99625.13
2023-01-09T09:48:06.205Z,99587.69
2023-01-09T09:51:25.926Z,99604.84
2023-01-09T09:54:19.662Z,99613.50
2023-01-09T09:57:17.788Z,99634.31
2023-01-09T10:00:09.267Z,99627.44
2023-01-09T10:03:07.353Z,99642.97
2023-01-09T10:05:59.219Z,99647.22
2023-01-09T10:08:57.202Z,99649.56
2023-01-09T10:11:54.100Z,99651.00
2023-01-09T10:14:43.457Z,99680.31
2023-01-09T10:18:06.453Z,99665.47
2023-01-09T10:21:01.440Z,99673.63
2023-01-09T10:24:11.706Z,99689.13
2023-01-09T10:27:11.278Z,99680.97
2023-01-09T10:30:24.257Z,99711.22
2023-01-09T10:33:35.235Z,99699.31
2023-01-09T10:36:48.503Z,99705.78
2023-01-09T10:39:43.272Z,99727.53
2023-01-09T10:42:36.959Z,99735.19
2023-01-09T10:45:29.871Z,99744.00
2023-01-09T10:48:30.057Z,99724.38
2023-01-09T10:51:23.020Z,99738.81
2023-01-09T10:54:16.056Z,99754.31
2023-01-09T10:57:11.397Z,99741.22
2023-01-09T11:00:00.754Z,99744.72
2023-01-09T11:02:50.481Z,99726.72
2023-01-09T11:05:41.584Z,99721.66
2023-01-09T11:08:36.408Z,99742.31
2023-01-09T11:11:36.765Z,99760.66
2023-01-09T11:14:31.821Z,99760.22
2023-01-09T11:17:23.359Z,99752.03
2023-01-09T11:20:21.237Z,99765.84
2023-01-09T11:23:30.045Z,99772.63
2023-01-09T11:26:26.781Z,99764.47
2023-01-09T11:29:17.860Z,99780.84
2023-01-09T11:32:09.851Z,99781.44
2023-01-09T11:34:59.193Z,99779.75
2023-01-09T11:37:58.034Z,99773.16
2023-01-09T11:40:51.881Z,99787.13
2023-01-09T11:43:41.705Z,99775.66
2023-01-09T11:46:38.611Z,99782.03
2023-01-09T11:49:30.005Z,99774.41
2023-01-09T11:52:22.345Z,99783.69
2023-01-09T11:55:17.147Z,99775.09
2023-01-09T11:58:13.421Z,99764.97
2023-01-09T12:01:19.437Z,99776.25
2023-01-09T12:04:29.750Z,99771.38
2023-01-09T12:07:56.122Z,99798.03
2023-01-09T12:11:04.707Z,99801.88
2023-01-09T12:14:18.331Z,99796.63
2023-01-09T12:17:48.735Z,99815.19
2023-01-09T12:21:00.734Z,99808.88
2023-01-09T12:24:12.258Z,99806.81
2023-01-09T12:27:20.073Z,99810.63
2023-01-09T12:30:46.092Z,99836.19
2023-01-09T12:33:44.971Z,99823.22
2023-01-09T12:36:43.842Z,99853.19
2023-01-09T12:39:44.747Z,99851.28
2023-01-09T12:42:49.290Z,99843.28
2023-01-09T12:46:02.105Z,99859.78
2023-01-09T12:49:16.864Z,99859.47
2023-01-09T12:52:13.461Z,99866.66
2023-01-09T12:55:14.313Z,99857.97
2023-01-09T12:58:10.240Z,99875.94
2023-01-09T13:01:03.862Z,99896.31
2023-01-09T13:04:07.725Z,99878.34
2023-01-09T13:07:04.565Z,99891.28
2023-01-09T13:10:00.960Z,99900.47
2023-01-09T13:12:51.677Z,99892.66
2023-01-09T13:15:45.508Z,99881.69
2023-01-09T13:18:41.123Z,99903.97
2023-01-09T13:21:30.743Z,99907.69
2023-01-09T13:24:26.279Z,99892.28
2023-01-09T13:27:19.352Z,99889.03
2023-01-09T13:30:37.929Z,99870.97
2023-01-09T13:33:29.788Z,99871.81
2023-01-09T13:36:29.303Z,99878.00
2023-01-09T13:39:25.535Z,99861.94
2023-01-09T13:42:39.808Z,99885.59
2023-01-09T13:45:31.640Z,99886.22
2023-01-09T13:48:42.364Z,99899.59
2023-01-09T13:52:02.805Z,99902.31
2023-01-09T13:55:31.820Z,99923.47
2023-01-09T13:58:26.011Z,99900.88
2023-01-09T14:01:47.610Z,99913.84
2023-01-09T14:04:46.152Z,99906.63
2023-01-09T14:07:37.848Z,99916.09
2023-01-09T14:10:31.101Z,99919.81
2023-01-09T14:13:24.872Z,99905.84
2023-01-09T14:16:20.872Z,99921.41
2023-01-09T14:19:36.034Z,99914.50
2023-01-09T14:22:29.235Z,99925.09
2023-01-09T14:25:24.827Z,99935.84
2023-01-09T14:28:23.506Z,99935.34
2023-01-09T14:31:29.417Z,99951.91
2023-01-09T14:34:32.476Z,99960.56
2023-01-09T14:37:22.562Z,99981.09
2023-01-09T14:40:23.440Z,99998.59
2023-01-09T14:43:34.652Z,99997.28
2023-01-09T14:46:25.566Z,100018.66
2023-01-09T14:49:25.453Z,100016.41
2023-01-09T14:52:23.744Z,100021.22
2023-01-09T14:55:24.017Z,100025.09
2023-01-09T14:58:22.508Z,100051.59
2023-01-09T15:01:19.384Z,100051.25
2023-01-09T15:04:24.479Z,100053.66
2023-01-09T15:07:21.986Z,100069.88
2023-01-09T15:10:19.949Z,100065.03
2023-01-09T15:13:19.644Z,100081.88
2023-01-09T15:16:19.870Z,100082.72
2023-01-09T15:19:10.774Z,100105.38
2023-01-09T15:22:03.661Z,100116.09
2023-01-09T15:24:52.974Z,100121.56
2023-01-09T15:27:49.727Z,100130.19
2023-01-09T15:30:41.944Z,100136.94
2023-01-09T15:33:31.591Z,100127.28
2023-01-09T15:36:25.375Z,100175.50
2023-01-09T15:39:19.680Z,100162.13
2023-01-09T15:42:41.126Z,100168.97
2023-01-09T15:45:35.587Z,100168.72
2023-01-09T15:48:29.403Z,100189.63
2023-01-09T15:51:18.816Z,100180.28
2023-01-09T15:54:08.163Z,100187.03
2023-01-09T15:57:34.102Z,100195.13
2023-01-09T16:00:44.095Z,100195.69
2023-01-09T16:03:39.159Z,100209.00
2023-01-09T16:06:31.663Z,100222.31
2023-01-09T16:09:27.338Z,100201.63
2023-01-09T16:12:22.972Z,100205.59
2023-01-09T16:15:19.201Z,100202.94
2023-01-09T16:18:29.857Z,100221.72
2023-01-09T16:21:36.717Z,100226.03
2023-01-09T16:24:29.692Z,100227.75
2023-01-09T16:27:26.428Z,100230.97
2023-01-09T16:30:28.005Z,100226.09
2023-01-09T16:33:23.212Z,100242.03
2023-01-09T16:36:13.881Z,100226.28
2023-01-09T16:39:05.657Z,100230.97
2023-01-09T16:42:16.114Z,100222.53
2023-01-09T16:45:06.266Z,100268.50
2023-01-09T16:47:55.817Z,100275.16
2023-01-09T16:50:45.691Z,100264.69
2023-01-09T16:53:35.006Z,100283.53
2023-01-09T16:56:28.933Z,100274.25
2023-01-09T16:59:24.783Z,100292.22
2023-01-09T17:02:19.313Z,100287.63
2023-01-09T17:05:09.451Z,100295.50
2023-01-09T17:07:58.701Z,100293.59
2023-01-09T17:10:47.939Z,100292.94
2023-01-09T17:13:38.555Z,100304.09
2023-01-09T17:16:29.193Z,100318.25
2023-01-09T17:19:21.736Z,100321.69
2023-01-09T17:22:11.315Z,100302.13
2023-01-09T17:25:17.746Z,100317.38
2023-01-09T17:28:25.164Z,100317.75
2023-01-09T17:31:15.935Z,100330.25
2023-01-09T17:34:05.191Z,100332.69
2023-01-09T17:36:55.756Z,100333.31
2023-01-09T17:39:45.428Z,100337.41
2023-01-09T17:42:34.754Z,100343.09
2023-01-09T17:45:24.041Z,100354.78
2023-01-09T17:48:20.260Z,100344.59
2023-01-09T17:51:10.878Z,100354.28
2023-01-09T17:54:00.541Z,100345.00
2023-01-09T17:56:52.385Z,100350.84
2023-01-09T17:59:41.595Z,100376.66
2023-01-09T18:02:30.862Z,100371.03
2023-01-09T18:05:21.817Z,100386.97
2023-01-09T18:08:13.962Z,100383.31
2023-01-09T18:11:04.568Z,100391.72
2023-01-09T18:13:54.843Z,100391.72
2023-01-09T18:16:45.171Z,100384.44
2023-01-09T18:19:34.788Z,100398.25
2023-01-09T18:22:25.436Z,100411.75
2023-01-09T18:25:15.181Z,100402.28
2023-01-09T18:28:04.528Z,100399.06
2023-01-09T18:30:53.805Z,100401.19
2023-01-09T18:33:43.275Z,100398.88
2023-01-09T18:36:33.786Z,100410.88
2023-01-09T18:39:24.575Z,100407.13
2023-01-09T18:42:14.027Z,100409.13
2023-01-09T18:45:03.531Z,100404.44
2023-01-09T18:47:52.906Z,100394.19
2023-01-09T18:50:42.129Z,100394.25
2023-01-09T18:53:31.398Z,100404.06
2023-01-09T18:56:22.688Z,100412.81
2023-01-09T18:59:12.433Z,100403.84
2023-01-09T19:02:02.349Z,100412.91
2023-01-09T19:04:52.102Z,100411.81
2023-01-09T19:07:41.437Z,100401.59
2023-01-09T19:10:30.676Z,100413.72
2023-01-09T19:13:21.279Z,100414.91
2023-01-09T19:16:11.081Z,100429.69
2023-01-09T19:19:02.747Z,100426.00
2023-01-09T19:21:52.106Z,100441.91
2023-01-09T19:24:41.430Z,100428.72
2023-01-09T19:27:31.470Z,100418.41
2023-01-09T19:30:22.409Z,100425.38
2023-01-09T19:33:13.141Z,100426.78
2023-01-09T19:36:02.347Z,100435.75
2023-01-09T19:38:57.223Z,100425.69
2023-01-09T19:41:46.667Z,100438.75
2023-01-09T19:44:35.890Z,100447.94
2023-01-09T19:47:26.539Z,100450.78
2023-01-09T19:50:16.626Z,100453.75
2023-01-09T19:53:05.890Z,100463.28
2023-01-09T19:55:55.130Z,100481.72
2023-01-09T19:58:50.160Z,100485.28
2023-01-09T20:01:41.812Z,100470.53
2023-01-09T20:04:32.655Z,100493.03
2023-01-09T20:07:22.493Z,100494.13
2023-01-09T20:10:12.461Z,100491.84
2023-01-09T20:13:01.919Z,100512.16
2023-01-09T20:15:51.200Z,100524.56
2023-01-09T20:18:40.910Z,100526.34
2023-01-09T20:21:31.830Z,100555.53
2023-01-09T20:24:21.175Z,100553.59
2023-01-09T20:27:10.410Z,100554.34
2023-01-09T20:29:59.785Z,100536.91
2023-01-09T20:32:49.509Z,100548.25
2023-01-09T20:35:38.756Z,100543.72
2023-01-09T20:38:29.627Z,100551.06
2023-01-09T20:41:23.655Z,100551.31
2023-01-09T20:44:15.786Z,100553.13
2023-01-09T20:47:05.220Z,100541.72
2023-01-09T20:49:54.518Z,100548.50
2023-01-09T20:52:43.929Z,100553.78
2023-01-09T20:55:34.919Z,100544.38
2023-01-09T20:58:24.129Z,100538.63
2023-01-09T21:01:15.284Z,100560.56
2023-01-09T21:04:04.719Z,100569.94
2023-01-09T21:06:54.053Z,100568.31
2023-01-09T21:09:43.378Z,100569.22
2023-01-09T21:12:38.693Z,100557.22
2023-01-09T21:15:28.303Z,100564.59
2023-01-09T21:18:17.624Z,100568.34
2023-01-09T21:21:09.565Z,100557.47
2023-01-09T21:24:01.654Z,100554.13
2023-01-09T21:26:51.048Z,100548.50
2023-01-09T21:29:41.972Z,100536.00
2023-01-09T21:32:32.835Z,100527.03
2023-01-09T21:35:22.129Z,100540.84
2023-01-09T21:38:11.430Z,100539.28
2023-01-09T21:41:21.439Z,100550.16
2023-01-09T21:44:31.624Z,100550.91
2023-01-09T21:47:22.925Z,100540.19
2023-01-09T21:50:12.736Z,100546.38
2023-01-09T21:53:02.319Z,100541.72
2023-01-09T21:55:52.934Z,100537.38
2023-01-09T21:58:45.601Z,100538.22
2023-01-09T22:01:35.084Z,100535.84
2023-01-09T22:04:29.111Z,100542.53
2023-01-09T22:07:18.732Z,100528.03
2023-01-09T22:10:10.052Z,100526.94
2023-01-09T22:13:16.303Z,100539.97
2023-01-09T22:16:08.192Z,100533.03
2023-01-09T22:18:58.273Z,100545.47
2023-01-09T22:21:49.594Z,100535.91
2023-01-09T22:24:38.983Z,100531.13
2023-01-09T22:27:28.396Z,100526.78
2023-01-09T22:30:18.308Z,100526.88
2023-01-09T22:33:10.715Z,100529.78
2023-01-09T22:36:07.554Z,100525.25
2023-01-09T22:38:59.907Z,100526.66
2023-01-09T22:41:54.520Z,100527.59
2023-01-09T22:44:43.690Z,100523.47
2023-01-09T22:47:32.995Z,100514.94
2023-01-09T22:50:22.367Z,100503.75
2023-01-09T22:53:11.818Z,100508.53
2023-01-09T22:56:06.113Z,100489.94
2023-01-09T22:58:58.494Z,100493.16
2023-01-09T23:01:47.937Z,100502.63
2023-01-09T23:04:37.349Z,100499.59
2023-01-09T23:07:27.116Z,100494.16
2023-01-09T23:10:17.311Z,100495.53
2023-01-09T23:13:08.125Z,100497.44
2023-01-09T23:15:57.638Z,100497.03
2023-01-09T23:18:46.877Z,100498.88
2023-01-09T23:21:36.163Z,100493.94
2023-01-09T23:24:25.424Z,100490.72
2023-01-09T23:27:14.794Z,100477.78
2023-01-09T23:30:06.634Z,100498.00
2023-01-09T23:32:55.893Z,100492.56
2023-01-09T23:35:45.541Z,100490.22
2023-01-09T23:38:34.933Z,100475.09
2023-01-09T23:41:45.044Z,100473.19
2023-01-09T23:44:33.322Z,100466.44
2023-01-09T23:47:24.011Z,100450.22
2023-01-09T23:50:13.669Z,100464.81
2023-01-09T23:53:03.294Z,100443.03
2023-01-09T23:55:55.856Z,100445.44
2023-01-09T23:58:45.212Z,100447.69
